sensor_id;sensor_type;location;lat;lon;timestamp;P1;durP1;ratioP1;P2;durP2;ratioP2
75112;SDS011;63692;47.338;8.520;2024-01-10T11:51:58;60.50;;;27.10;;
75112;SDS011;63692;47.338;8.520;2024-01-10T11:54:37;67.35;;;28.42;;
75112;SDS011;63692;47.338;8.520;2024-01-10T11:57:19;66.80;;;28.05;;
75112;SDS011;63692;47.338;8.520;2024-01-10T11:59:47;68.30;;;27.65;;
75112;SDS011;63692;47.338;8.520;2024-01-10T12:02:15;69.43;;;29.17;;
75112;SDS011;63692;47.338;8.520;2024-01-10T12:04:42;64.70;;;28.23;;
75112;SDS011;63692;47.338;8.520;2024-01-10T12:07:07;67.55;;;28.38;;
75112;SDS011;63692;47.338;8.520;2024-01-10T12:09:34;67.45;;;28.27;;
75112;SDS011;63692;47.338;8.520;2024-01-10T12:12:01;69.75;;;28.67;;
75112;SDS011;63692;47.338;8.520;2024-01-10T12:14:27;64.28;;;28.67;;
75112;SDS011;63692;47.338;8.520;2024-01-10T12:16:53;65.07;;;27.85;;
75112;SDS011;63692;47.338;8.520;2024-01-10T12:31:42;67.68;;;29.48;;
75112;SDS011;63692;47.338;8.520;2024-01-10T12:34:10;67.80;;;29.30;;
75112;SDS011;63692;47.338;8.520;2024-01-10T12:36:36;68.15;;;28.30;;
75112;SDS011;63692;47.338;8.520;2024-01-10T12:39:02;70.30;;;29.08;;
75112;SDS011;63692;47.338;8.520;2024-01-10T12:41:31;67.32;;;29.02;;
75112;SDS011;63692;47.338;8.520;2024-01-10T12:43:58;67.50;;;29.40;;
75112;SDS011;63692;47.338;8.520;2024-01-10T12:46:28;70.85;;;29.88;;
75112;SDS011;63692;47.338;8.520;2024-01-10T12:49:00;68.57;;;28.63;;
75112;SDS011;63692;47.338;8.520;2024-01-10T12:51:30;67.53;;;28.58;;
75112;SDS011;63692;47.338;8.520;2024-01-10T12:53:57;72.32;;;29.90;;
75112;SDS011;63692;47.338;8.520;2024-01-10T12:58:58;71.38;;;29.13;;
75112;SDS011;63692;47.338;8.520;2024-01-10T13:01:24;62.10;;;26.77;;
75112;SDS011;63692;47.338;8.520;2024-01-10T13:03:50;64.32;;;27.27;;
75112;SDS011;63692;47.338;8.520;2024-01-10T13:06:16;66.03;;;27.80;;
75112;SDS011;63692;47.338;8.520;2024-01-10T13:08:43;64.30;;;27.52;;
75112;SDS011;63692;47.338;8.520;2024-01-10T13:11:10;68.65;;;27.80;;
75112;SDS011;63692;47.338;8.520;2024-01-10T13:13:37;65.63;;;28.10;;
75112;SDS011;63692;47.338;8.520;2024-01-10T13:16:03;61.67;;;25.88;;
75112;SDS011;63692;47.338;8.520;2024-01-10T13:18:29;64.75;;;26.67;;
75112;SDS011;63692;47.338;8.520;2024-01-10T13:20:55;66.95;;;27.83;;
75112;SDS011;63692;47.338;8.520;2024-01-10T13:23:21;64.20;;;26.70;;
75112;SDS011;63692;47.338;8.520;2024-01-10T13:25:52;64.00;;;26.38;;
75112;SDS011;63692;47.338;8.520;2024-01-10T13:33:11;61.10;;;25.85;;
75112;SDS011;63692;47.338;8.520;2024-01-10T13:40:33;61.75;;;25.85;;
75112;SDS011;63692;47.338;8.520;2024-01-10T13:42:59;61.72;;;25.30;;
75112;SDS011;63692;47.338;8.520;2024-01-10T13:45:27;63.28;;;25.95;;
75112;SDS011;63692;47.338;8.520;2024-01-10T13:47:54;58.25;;;23.95;;
75112;SDS011;63692;47.338;8.520;2024-01-10T13:50:19;57.65;;;23.83;;
75112;SDS011;63692;47.338;8.520;2024-01-10T13:52:45;55.58;;;24.05;;
75112;SDS011;63692;47.338;8.520;2024-01-10T13:55:11;56.15;;;23.95;;
75112;SDS011;63692;47.338;8.520;2024-01-10T13:57:36;56.63;;;23.83;;
75112;SDS011;63692;47.338;8.520;2024-01-10T14:00:02;52.50;;;22.85;;
75112;SDS011;63692;47.338;8.520;2024-01-10T14:02:28;59.28;;;22.77;;
75112;SDS011;63692;47.338;8.520;2024-01-10T14:04:54;51.58;;;21.92;;
75112;SDS011;63692;47.338;8.520;2024-01-10T14:07:23;56.83;;;22.10;;
75112;SDS011;63692;47.338;8.520;2024-01-10T14:12:16;50.22;;;21.92;;
75112;SDS011;63692;47.338;8.520;2024-01-10T14:14:42;53.42;;;22.55;;
75112;SDS011;63692;47.338;8.520;2024-01-10T14:17:09;56.05;;;23.00;;
75112;SDS011;63692;47.338;8.520;2024-01-10T14:19:35;55.30;;;23.05;;
75112;SDS011;63692;47.338;8.520;2024-01-10T14:22:01;58.15;;;23.27;;
75112;SDS011;63692;47.338;8.520;2024-01-10T14:24:27;53.10;;;22.58;;
75112;SDS011;63692;47.338;8.520;2024-01-10T14:26:52;53.28;;;22.45;;
75112;SDS011;63692;47.338;8.520;2024-01-10T14:31:45;56.85;;;23.67;;
75112;SDS011;63692;47.338;8.520;2024-01-10T14:34:11;54.00;;;24.00;;
75112;SDS011;63692;47.338;8.520;2024-01-10T14:36:37;50.85;;;21.90;;
75112;SDS011;63692;47.338;8.520;2024-01-10T14:39:02;56.40;;;23.58;;
75112;SDS011;63692;47.338;8.520;2024-01-10T14:44:00;55.33;;;21.92;;
75112;SDS011;63692;47.338;8.520;2024-01-10T14:46:28;50.25;;;21.38;;
75112;SDS011;63692;47.338;8.520;2024-01-10T14:48:54;50.67;;;21.15;;
75112;SDS011;63692;47.338;8.520;2024-01-10T14:53:55;47.58;;;19.15;;
75112;SDS011;63692;47.338;8.520;2024-01-10T14:56:21;46.22;;;18.48;;
75112;SDS011;63692;47.338;8.520;2024-01-10T15:01:17;46.13;;;18.95;;
75112;SDS011;63692;47.338;8.520;2024-01-10T15:03:44;46.90;;;19.40;;
75112;SDS011;63692;47.338;8.520;2024-01-10T15:11:13;47.97;;;19.10;;
75112;SDS011;63692;47.338;8.520;2024-01-10T15:13:38;48.45;;;19.92;;
75112;SDS011;63692;47.338;8.520;2024-01-10T15:16:07;52.38;;;19.98;;
75112;SDS011;63692;47.338;8.520;2024-01-10T15:18:32;47.53;;;19.33;;
75112;SDS011;63692;47.338;8.520;2024-01-10T15:20:58;47.13;;;19.55;;
75112;SDS011;63692;47.338;8.520;2024-01-10T15:23:24;48.05;;;19.85;;
75112;SDS011;63692;47.338;8.520;2024-01-10T15:25:49;51.05;;;20.45;;
75112;SDS011;63692;47.338;8.520;2024-01-10T15:28:15;48.17;;;19.23;;
75112;SDS011;63692;47.338;8.520;2024-01-10T15:30:40;50.70;;;20.42;;
75112;SDS011;63692;47.338;8.520;2024-01-10T15:33:06;50.47;;;20.02;;
75112;SDS011;63692;47.338;8.520;2024-01-10T15:35:34;49.17;;;20.60;;
75112;SDS011;63692;47.338;8.520;2024-01-10T15:38:00;53.80;;;22.25;;
75112;SDS011;63692;47.338;8.520;2024-01-10T15:40:26;51.47;;;21.23;;
75112;SDS011;63692;47.338;8.520;2024-01-10T15:42:51;46.63;;;20.38;;
75112;SDS011;63692;47.338;8.520;2024-01-10T15:45:17;47.20;;;19.55;;
75112;SDS011;63692;47.338;8.520;2024-01-10T15:47:43;52.17;;;20.85;;
75112;SDS011;63692;47.338;8.520;2024-01-10T15:50:09;54.60;;;20.67;;
75112;SDS011;63692;47.338;8.520;2024-01-10T15:52:35;52.28;;;22.48;;
75112;SDS011;63692;47.338;8.520;2024-01-10T15:55:02;49.97;;;20.25;;
75112;SDS011;63692;47.338;8.520;2024-01-10T15:57:29;51.90;;;22.75;;
75112;SDS011;63692;47.338;8.520;2024-01-10T15:59:55;63.42;;;28.08;;
75112;SDS011;63692;47.338;8.520;2024-01-10T16:02:23;59.22;;;23.10;;
75112;SDS011;63692;47.338;8.520;2024-01-10T16:04:49;52.30;;;21.23;;
75112;SDS011;63692;47.338;8.520;2024-01-10T16:07:14;53.20;;;21.75;;
75112;SDS011;63692;47.338;8.520;2024-01-10T16:09:40;49.00;;;20.13;;
75112;SDS011;63692;47.338;8.520;2024-01-10T16:12:05;54.97;;;22.17;;
75112;SDS011;63692;47.338;8.520;2024-01-10T16:14:31;57.75;;;21.75;;
75112;SDS011;63692;47.338;8.520;2024-01-10T16:16:57;53.97;;;21.73;;
75112;SDS011;63692;47.338;8.520;2024-01-10T16:19:23;56.58;;;22.10;;
75112;SDS011;63692;47.338;8.520;2024-01-10T16:21:49;48.30;;;19.98;;
75112;SDS011;63692;47.338;8.520;2024-01-10T16:24:15;53.10;;;20.98;;
75112;SDS011;63692;47.338;8.520;2024-01-10T16:26:41;49.90;;;19.80;;
75112;SDS011;63692;47.338;8.520;2024-01-10T16:29:07;50.10;;;20.45;;
75112;SDS011;63692;47.338;8.520;2024-01-10T16:31:33;53.17;;;20.20;;
75112;SDS011;63692;47.338;8.520;2024-01-10T16:33:58;49.60;;;20.45;;
75112;SDS011;63692;47.338;8.520;2024-01-10T16:36:24;53.13;;;20.67;;
75112;SDS011;63692;47.338;8.520;2024-01-10T16:38:50;54.58;;;21.80;;
75112;SDS011;63692;47.338;8.520;2024-01-10T16:41:16;55.20;;;21.42;;
75112;SDS011;63692;47.338;8.520;2024-01-10T16:43:41;58.75;;;23.45;;
75112;SDS011;63692;47.338;8.520;2024-01-10T16:46:07;61.42;;;24.45;;
75112;SDS011;63692;47.338;8.520;2024-01-10T16:48:34;55.08;;;21.98;;
75112;SDS011;63692;47.338;8.520;2024-01-10T16:50:59;58.47;;;23.30;;
75112;SDS011;63692;47.338;8.520;2024-01-10T16:53:25;56.17;;;22.73;;
75112;SDS011;63692;47.338;8.520;2024-01-10T16:55:51;52.53;;;21.83;;
75112;SDS011;63692;47.338;8.520;2024-01-10T16:58:17;52.95;;;22.40;;
75112;SDS011;63692;47.338;8.520;2024-01-10T17:00:43;55.05;;;21.88;;
75112;SDS011;63692;47.338;8.520;2024-01-10T17:03:09;58.55;;;23.98;;
75112;SDS011;63692;47.338;8.520;2024-01-10T17:05:35;55.45;;;22.33;;
75112;SDS011;63692;47.338;8.520;2024-01-10T17:08:01;54.38;;;22.63;;
75112;SDS011;63692;47.338;8.520;2024-01-10T17:10:28;55.60;;;22.10;;
75112;SDS011;63692;47.338;8.520;2024-01-10T17:12:54;56.13;;;22.73;;
75112;SDS011;63692;47.338;8.520;2024-01-10T17:15:20;52.40;;;22.50;;
75112;SDS011;63692;47.338;8.520;2024-01-10T17:17:45;51.67;;;21.77;;
75112;SDS011;63692;47.338;8.520;2024-01-10T17:20:11;53.20;;;21.48;;
75112;SDS011;63692;47.338;8.520;2024-01-10T17:22:38;54.55;;;21.80;;
75112;SDS011;63692;47.338;8.520;2024-01-10T17:25:04;49.30;;;20.50;;
75112;SDS011;63692;47.338;8.520;2024-01-10T17:27:31;52.42;;;21.48;;
75112;SDS011;63692;47.338;8.520;2024-01-10T17:29:57;52.70;;;21.35;;
75112;SDS011;63692;47.338;8.520;2024-01-10T17:32:23;56.63;;;21.67;;
75112;SDS011;63692;47.338;8.520;2024-01-10T17:34:49;49.53;;;21.08;;
75112;SDS011;63692;47.338;8.520;2024-01-10T17:37:15;56.95;;;22.45;;
75112;SDS011;63692;47.338;8.520;2024-01-10T17:39:41;50.45;;;20.02;;
75112;SDS011;63692;47.338;8.520;2024-01-10T17:42:07;54.15;;;23.35;;
75112;SDS011;63692;47.338;8.520;2024-01-10T17:44:32;54.88;;;22.15;;
75112;SDS011;63692;47.338;8.520;2024-01-10T17:47:02;57.63;;;22.83;;
75112;SDS011;63692;47.338;8.520;2024-01-10T17:49:31;56.63;;;22.00;;
75112;SDS011;63692;47.338;8.520;2024-01-10T17:51:56;54.40;;;23.50;;
75112;SDS011;63692;47.338;8.520;2024-01-10T17:54:22;54.85;;;21.80;;
75112;SDS011;63692;47.338;8.520;2024-01-10T17:56:48;60.25;;;24.13;;
75112;SDS011;63692;47.338;8.520;2024-01-10T17:59:14;63.08;;;23.33;;
75112;SDS011;63692;47.338;8.520;2024-01-10T18:01:40;56.30;;;22.55;;
75112;SDS011;63692;47.338;8.520;2024-01-10T18:04:05;52.28;;;22.35;;
75112;SDS011;63692;47.338;8.520;2024-01-10T18:06:32;59.38;;;23.25;;
75112;SDS011;63692;47.338;8.520;2024-01-10T18:08:59;55.65;;;23.30;;
75112;SDS011;63692;47.338;8.520;2024-01-10T18:11:24;51.65;;;21.30;;
75112;SDS011;63692;47.338;8.520;2024-01-10T18:13:50;55.95;;;22.70;;
75112;SDS011;63692;47.338;8.520;2024-01-10T18:16:15;61.35;;;24.33;;
75112;SDS011;63692;47.338;8.520;2024-01-10T18:18:41;66.53;;;25.02;;
75112;SDS011;63692;47.338;8.520;2024-01-10T18:21:07;58.83;;;24.90;;
75112;SDS011;63692;47.338;8.520;2024-01-10T18:23:32;60.35;;;25.30;;
75112;SDS011;63692;47.338;8.520;2024-01-10T18:25:58;68.25;;;25.33;;
75112;SDS011;63692;47.338;8.520;2024-01-10T18:28:23;59.60;;;23.85;;
75112;SDS011;63692;47.338;8.520;2024-01-10T18:30:49;58.53;;;23.58;;
75112;SDS011;63692;47.338;8.520;2024-01-10T18:33:15;59.60;;;24.40;;
75112;SDS011;63692;47.338;8.520;2024-01-10T18:35:43;65.93;;;25.83;;
75112;SDS011;63692;47.338;8.520;2024-01-10T18:38:09;66.07;;;26.42;;
75112;SDS011;63692;47.338;8.520;2024-01-10T18:40:35;64.25;;;24.80;;
75112;SDS011;63692;47.338;8.520;2024-01-10T18:43:00;59.17;;;24.85;;
75112;SDS011;63692;47.338;8.520;2024-01-10T18:45:26;66.70;;;26.92;;
75112;SDS011;63692;47.338;8.520;2024-01-10T18:47:52;63.35;;;25.42;;
75112;SDS011;63692;47.338;8.520;2024-01-10T18:50:17;61.58;;;25.58;;
75112;SDS011;63692;47.338;8.520;2024-01-10T18:52:43;56.35;;;25.70;;
75112;SDS011;63692;47.338;8.520;2024-01-10T18:55:11;57.10;;;23.58;;
75112;SDS011;63692;47.338;8.520;2024-01-10T18:57:37;59.33;;;23.95;;
75112;SDS011;63692;47.338;8.520;2024-01-10T19:00:04;59.35;;;24.33;;
75112;SDS011;63692;47.338;8.520;2024-01-10T19:02:31;63.15;;;23.85;;
